createdAt,value
2018-10-09T00:00:27.099Z,12.04
2018-10-09T00:02:55.752Z,12.03
2018-10-09T00:05:24.525Z,11.88
2018-10-09T00:07:53.179Z,11.95
2018-10-09T00:10:22.225Z,11.97
2018-10-09T00:14:15.264Z,11.95
2018-10-09T00:16:43.777Z,11.91
2018-10-09T00:19:12.340Z,11.92
2018-10-09T00:21:40.917Z,11.71
2018-10-09T00:24:09.592Z,11.55
2018-10-09T00:26:38.421Z,11.56
2018-10-09T00:29:07.120Z,11.37
2018-10-09T00:31:35.897Z,11.11
2018-10-09T00:34:04.673Z,10.92
2018-10-09T00:36:33.476Z,10.97
2018-10-09T00:39:02.045Z,10.79
2018-10-09T00:41:30.654Z,10.71
2018-10-09T00:43:59.313Z,10.90
2018-10-09T00:46:28.008Z,11.07
2018-10-09T00:48:56.541Z,11.03
2018-10-09T00:51:25.568Z,10.98
2018-10-09T00:53:54.220Z,10.75
2018-10-09T00:56:22.924Z,10.42
2018-10-09T00:58:51.584Z,10.36
2018-10-09T01:01:20.328Z,10.47
2018-10-09T01:03:49.008Z,10.27
2018-10-09T01:06:17.759Z,10.34
2018-10-09T01:08:46.568Z,10.38
2018-10-09T01:11:15.397Z,10.15
2018-10-09T01:13:44.174Z,10.31
2018-10-09T01:16:12.732Z,10.38
2018-10-09T01:18:41.456Z,10.46
2018-10-09T01:21:10.144Z,10.47
2018-10-09T01:23:38.813Z,10.48
2018-10-09T01:26:07.578Z,10.51
2018-10-09T01:28:36.244Z,10.56
2018-10-09T01:31:04.826Z,10.68
2018-10-09T01:33:33.468Z,10.69
2018-10-09T01:36:02.164Z,10.69
2018-10-09T01:38:30.927Z,10.69
2018-10-09T01:40:59.646Z,10.68
2018-10-09T01:43:28.295Z,10.73
2018-10-09T01:45:57.080Z,10.81
2018-10-09T01:48:25.748Z,10.77
2018-10-09T01:50:54.437Z,10.74
2018-10-09T01:53:23.089Z,10.70
2018-10-09T01:55:51.856Z,10.68
2018-10-09T01:58:20.516Z,10.69
2018-10-09T02:00:49.161Z,10.73
2018-10-09T02:03:18.135Z,10.76
2018-10-09T02:05:46.798Z,10.76
2018-10-09T02:08:15.605Z,10.73
2018-10-09T02:10:44.250Z,10.77
2018-10-09T02:13:13.042Z,10.75
2018-10-09T02:15:41.808Z,10.70
2018-10-09T02:18:10.763Z,10.68
2018-10-09T02:20:39.516Z,10.61
2018-10-09T02:23:08.312Z,10.60
2018-10-09T02:25:36.958Z,10.66
2018-10-09T02:28:05.740Z,10.62
2018-10-09T02:30:34.498Z,10.48
2018-10-09T02:33:03.085Z,10.49
2018-10-09T02:35:31.721Z,10.48
2018-10-09T02:38:00.519Z,10.51
2018-10-09T02:40:29.176Z,10.47
2018-10-09T02:42:57.965Z,10.39
2018-10-09T02:45:26.612Z,10.35
2018-10-09T02:47:55.485Z,10.18
2018-10-09T02:50:24.371Z,9.94
2018-10-09T02:52:53.093Z,9.77
2018-10-09T02:55:21.888Z,9.90
2018-10-09T02:57:50.564Z,9.88
2018-10-09T03:00:19.324Z,9.91
2018-10-09T03:02:47.884Z,9.94
2018-10-09T03:05:16.649Z,9.93
2018-10-09T03:07:45.352Z,10.02
2018-10-09T03:10:14.105Z,10.04
2018-10-09T03:12:42.776Z,9.77
2018-10-09T03:15:11.536Z,9.54
2018-10-09T03:17:40.322Z,9.52
2018-10-09T03:20:09.052Z,9.58
2018-10-09T03:22:37.836Z,9.61
2018-10-09T03:25:06.414Z,9.35
2018-10-09T03:27:35.119Z,9.41
2018-10-09T03:30:03.769Z,9.30
2018-10-09T03:32:32.543Z,9.21
2018-10-09T03:35:01.312Z,9.23
2018-10-09T03:37:30.105Z,9.35
2018-10-09T03:39:58.653Z,9.38
2018-10-09T03:42:27.472Z,9.43
2018-10-09T03:44:56.248Z,9.32
2018-10-09T03:47:24.808Z,9.33
2018-10-09T03:49:53.563Z,9.24
2018-10-09T03:52:22.377Z,9.03
2018-10-09T03:54:51.037Z,8.85
2018-10-09T03:57:19.796Z,8.88
2018-10-09T03:59:48.460Z,8.75
2018-10-09T04:02:17.263Z,8.53
2018-10-09T04:04:45.971Z,8.42
2018-10-09T04:07:14.637Z,8.23
2018-10-09T04:09:43.305Z,8.10
2018-10-09T04:12:11.862Z,7.88
2018-10-09T04:14:40.556Z,7.78
2018-10-09T04:17:09.299Z,7.77
2018-10-09T04:19:38.006Z,7.94
2018-10-09T04:22:07.333Z,8.06
2018-10-09T04:24:35.908Z,8.02
2018-10-09T04:27:04.664Z,8.10
2018-10-09T04:29:33.554Z,8.21
2018-10-09T04:32:02.268Z,8.29
2018-10-09T04:34:31.052Z,8.28
2018-10-09T04:36:59.816Z,8.40
2018-10-09T04:39:28.510Z,8.47
2018-10-09T04:41:57.029Z,8.53
2018-10-09T04:44:25.809Z,8.59
2018-10-09T04:46:54.556Z,8.68
2018-10-09T04:49:23.353Z,8.75
2018-10-09T04:51:52.005Z,8.75
2018-10-09T04:54:20.805Z,8.79
2018-10-09T04:56:49.609Z,8.76
2018-10-09T04:59:18.412Z,9.02
2018-10-09T05:01:47.175Z,8.96
2018-10-09T05:04:15.922Z,9.01
2018-10-09T05:06:44.717Z,9.11
2018-10-09T05:09:13.397Z,8.87
2018-10-09T05:11:42.048Z,8.81
2018-10-09T05:14:10.842Z,9.13
2018-10-09T05:16:39.488Z,9.37
2018-10-09T05:19:08.048Z,9.51
2018-10-09T05:21:36.708Z,9.64
2018-10-09T05:24:05.385Z,9.69
2018-10-09T05:26:34.038Z,9.83
2018-10-09T05:29:02.825Z,9.95
2018-10-09T05:31:31.648Z,10.02
2018-10-09T05:34:01.877Z,10.19
2018-10-09T05:36:30.655Z,10.23
2018-10-09T05:38:59.328Z,10.35
2018-10-09T05:41:27.973Z,10.40
2018-10-09T05:43:56.792Z,10.47
2018-10-09T05:46:25.561Z,10.62
2018-10-09T05:48:54.228Z,10.68
2018-10-09T05:51:27.595Z,10.91
2018-10-09T05:53:58.582Z,10.95
2018-10-09T05:56:27.586Z,11.07
2018-10-09T05:58:56.493Z,11.18
2018-10-09T06:01:25.204Z,10.93
2018-10-09T06:03:53.965Z,10.67
2018-10-09T06:06:23.660Z,10.59
2018-10-09T06:08:52.428Z,10.51
2018-10-09T06:11:22.696Z,10.44
2018-10-09T06:13:51.497Z,10.38
2018-10-09T06:16:26.516Z,10.57
2018-10-09T06:18:56.243Z,10.84
2018-10-09T06:21:29.251Z,11.08
2018-10-09T06:23:57.969Z,11.25
2018-10-09T06:26:27.569Z,11.40
2018-10-09T06:28:56.259Z,11.46
2018-10-09T06:31:28.753Z,11.63
2018-10-09T06:33:57.597Z,11.74
2018-10-09T06:36:26.252Z,11.73
2018-10-09T06:38:54.881Z,11.88
2018-10-09T06:41:23.670Z,11.91
2018-10-09T06:43:52.442Z,12.00
2018-10-09T06:46:21.345Z,12.17
2018-10-09T06:48:50.399Z,12.24
2018-10-09T06:51:19.172Z,12.50
2018-10-09T06:53:47.963Z,12.60
2018-10-09T06:56:16.530Z,12.68
2018-10-09T06:58:45.299Z,12.65
2018-10-09T07:01:13.985Z,12.70
2018-10-09T07:03:42.673Z,12.73
2018-10-09T07:06:13.473Z,12.84
2018-10-09T07:08:42.892Z,12.96
2018-10-09T07:11:12.761Z,13.02
2018-10-09T07:13:44.138Z,13.17
2018-10-09T07:16:12.941Z,13.30
2018-10-09T07:18:41.716Z,13.34
2018-10-09T07:21:10.407Z,13.40
2018-10-09T07:23:39.170Z,13.48
2018-10-09T07:26:10.994Z,13.60
2018-10-09T07:28:43.286Z,13.70
2018-10-09T07:31:12.092Z,13.89
2018-10-09T07:33:40.889Z,13.99
2018-10-09T07:36:09.473Z,14.18
2018-10-09T07:38:38.279Z,14.25
2018-10-09T07:41:07.220Z,14.27
2018-10-09T07:43:35.889Z,14.37
2018-10-09T07:46:04.520Z,14.54
2018-10-09T07:48:33.317Z,14.64
2018-10-09T07:51:02.173Z,14.83
2018-10-09T07:53:30.804Z,14.98
2018-10-09T07:55:59.528Z,15.07
2018-10-09T07:58:28.220Z,14.95
2018-10-09T08:00:58.545Z,15.08
2018-10-09T08:03:30.831Z,15.15
2018-10-09T08:05:59.548Z,15.25
2018-10-09T08:08:28.337Z,15.31
2018-10-09T08:10:58.552Z,15.44
2018-10-09T08:13:27.406Z,15.56
2018-10-09T08:15:56.196Z,15.55
2018-10-09T08:18:25.021Z,15.64
2018-10-09T08:20:53.790Z,15.73
2018-10-09T08:23:22.597Z,15.72
2018-10-09T08:25:52.689Z,15.87
2018-10-09T08:28:22.675Z,15.79
2018-10-09T08:30:51.452Z,15.89
2018-10-09T08:33:20.137Z,15.93
2018-10-09T08:35:48.934Z,15.97
2018-10-09T08:38:17.646Z,16.17
2018-10-09T08:40:46.465Z,16.38
2018-10-09T08:43:15.636Z,16.44
2018-10-09T08:45:46.872Z,16.41
2018-10-09T08:48:15.881Z,16.45
2018-10-09T08:50:44.641Z,16.74
2018-10-09T08:53:13.463Z,16.74
2018-10-09T08:55:42.272Z,15.65
2018-10-09T08:58:11.084Z,15.47
2018-10-09T09:00:39.745Z,15.26
2018-10-09T09:03:08.460Z,14.78
2018-10-09T09:05:37.007Z,15.34
2018-10-09T09:08:05.733Z,15.62
2018-10-09T09:10:34.288Z,15.26
2018-10-09T09:13:03.121Z,14.90
2018-10-09T09:15:31.945Z,14.76
2018-10-09T09:18:00.535Z,14.68
2018-10-09T09:20:29.351Z,14.33
2018-10-09T09:22:58.204Z,14.28
2018-10-09T09:25:26.996Z,14.53
2018-10-09T09:27:55.700Z,14.53
2018-10-09T09:30:24.486Z,14.90
2018-10-09T09:32:53.509Z,15.57
2018-10-09T09:35:22.078Z,16.26
2018-10-09T09:37:50.917Z,16.42
2018-10-09T09:40:19.581Z,16.23
2018-10-09T09:42:48.352Z,16.15
2018-10-09T09:45:16.914Z,16.52
2018-10-09T09:47:45.616Z,18.16
2018-10-09T09:50:14.286Z,19.89
2018-10-09T09:52:43.077Z,21.32
2018-10-09T09:55:12.009Z,21.58
2018-10-09T09:57:41.216Z,20.88
2018-10-09T10:01:13.017Z,20.47
2018-10-09T10:03:42.322Z,20.66
2018-10-09T10:06:10.861Z,21.96
2018-10-09T10:08:39.708Z,24.41
2018-10-09T10:11:08.293Z,26.86
2018-10-09T10:13:36.997Z,28.11
2018-10-09T10:16:05.892Z,27.80
2018-10-09T10:18:35.323Z,28.38
2018-10-09T10:21:04.048Z,29.34
2018-10-09T10:23:32.937Z,29.28
2018-10-09T10:26:01.730Z,29.17
2018-10-09T10:28:30.435Z,27.86
2018-10-09T10:30:59.233Z,27.87
2018-10-09T10:33:27.845Z,27.60
2018-10-09T10:35:56.617Z,28.02
2018-10-09T10:38:25.361Z,29.25
2018-10-09T10:40:54.152Z,30.29
2018-10-09T10:43:22.963Z,29.92
2018-10-09T10:45:52.180Z,28.05
2018-10-09T10:48:20.891Z,28.75
2018-10-09T10:50:49.612Z,29.52
2018-10-09T10:53:18.406Z,30.32
2018-10-09T10:55:47.219Z,30.06
2018-10-09T10:58:16.028Z,29.62
2018-10-09T11:00:49.721Z,29.00
2018-10-09T11:03:18.723Z,28.93
2018-10-09T11:05:47.593Z,28.88
2018-10-09T11:08:16.524Z,29.42
2018-10-09T11:10:45.252Z,29.71
2018-10-09T11:13:14.018Z,30.48
2018-10-09T11:15:42.877Z,30.81
2018-10-09T11:18:11.541Z,30.19
2018-10-09T11:20:40.203Z,29.71
2018-10-09T11:23:08.734Z,28.90
2018-10-09T11:25:37.533Z,28.71
2018-10-09T11:28:06.524Z,28.33
2018-10-09T11:30:35.319Z,28.57
2018-10-09T11:33:03.895Z,28.78
2018-10-09T11:35:32.605Z,29.29
2018-10-09T11:38:01.276Z,29.62
2018-10-09T11:40:29.985Z,28.19
2018-10-09T11:42:58.904Z,27.51
2018-10-09T11:45:27.824Z,27.92
2018-10-09T11:47:56.586Z,27.82
2018-10-09T11:50:25.391Z,27.74
2018-10-09T11:52:54.241Z,27.33
2018-10-09T11:55:22.952Z,27.68
2018-10-09T11:57:51.623Z,27.81
2018-10-09T12:00:20.465Z,28.04
2018-10-09T12:02:49.256Z,28.72
2018-10-09T12:05:18.114Z,27.71
2018-10-09T12:07:46.704Z,27.86
2018-10-09T12:10:15.473Z,27.82
2018-10-09T12:12:44.247Z,27.76
2018-10-09T12:15:12.924Z,27.67
2018-10-09T12:17:41.687Z,27.22
2018-10-09T12:20:10.269Z,27.00
2018-10-09T12:22:39.050Z,26.54
2018-10-09T12:25:07.693Z,26.17
2018-10-09T12:27:36.456Z,25.83
2018-10-09T12:30:05.652Z,26.11
2018-10-09T12:32:34.525Z,26.33
2018-10-09T12:35:03.321Z,26.28
2018-10-09T12:37:31.893Z,25.95
2018-10-09T12:40:00.633Z,25.93
2018-10-09T12:42:29.322Z,26.10
2018-10-09T12:44:57.957Z,26.28
2018-10-09T12:47:26.717Z,26.73
2018-10-09T12:49:55.468Z,27.08
2018-10-09T12:52:24.257Z,26.47
2018-10-09T12:54:53.052Z,26.56
2018-10-09T12:57:21.837Z,27.12
2018-10-09T12:59:50.594Z,26.90
2018-10-09T13:02:19.256Z,26.63
2018-10-09T13:04:47.810Z,26.69
2018-10-09T13:07:16.589Z,26.76
2018-10-09T13:09:45.242Z,27.04
2018-10-09T13:12:13.948Z,26.66
2018-10-09T13:14:44.764Z,26.13
2018-10-09T13:17:13.485Z,26.33
2018-10-09T13:19:43.201Z,26.40
2018-10-09T13:22:12.248Z,26.58
2018-10-09T13:24:41.673Z,26.79
2018-10-09T13:27:10.629Z,26.89
2018-10-09T13:29:39.312Z,27.04
2018-10-09T13:32:08.130Z,27.69
2018-10-09T13:34:37.885Z,27.04
2018-10-09T13:37:06.511Z,27.27
2018-10-09T13:39:36.325Z,27.29
2018-10-09T13:42:05.129Z,27.25
2018-10-09T13:44:34.140Z,26.89
2018-10-09T13:47:02.843Z,27.36
2018-10-09T13:49:34.151Z,27.72
2018-10-09T13:52:03.037Z,27.86
2018-10-09T13:54:32.073Z,27.34
2018-10-09T13:57:00.853Z,27.19
2018-10-09T13:59:29.610Z,27.16
2018-10-09T14:01:58.192Z,26.72
2018-10-09T14:04:26.913Z,26.32
2018-10-09T14:06:55.616Z,26.31
2018-10-09T14:09:24.501Z,26.58
2018-10-09T14:11:53.190Z,27.28
2018-10-09T14:14:21.936Z,27.21
2018-10-09T14:16:50.626Z,27.39
2018-10-09T14:19:19.192Z,27.66
2018-10-09T14:21:48.142Z,27.10
2018-10-09T14:24:16.818Z,26.13
2018-10-09T14:26:45.606Z,26.12
2018-10-09T14:29:14.332Z,26.18
2018-10-09T14:31:43.085Z,26.33
2018-10-09T14:34:11.881Z,25.80
2018-10-09T14:36:40.517Z,25.93
2018-10-09T14:39:09.749Z,25.98
2018-10-09T14:41:38.532Z,26.12
2018-10-09T14:44:07.427Z,26.17
2018-10-09T14:46:35.989Z,26.08
2018-10-09T14:49:04.681Z,25.42
2018-10-09T14:51:33.325Z,24.89
2018-10-09T14:54:02.105Z,24.70
2018-10-09T14:56:30.920Z,24.32
2018-10-09T14:58:59.625Z,24.02
2018-10-09T15:01:28.373Z,23.70
2018-10-09T15:03:57.121Z,23.53
2018-10-09T15:09:58.139Z,22.82
2018-10-09T15:12:26.804Z,22.71
2018-10-09T15:14:55.445Z,22.70
2018-10-09T15:17:24.247Z,22.98
2018-10-09T15:19:53.226Z,23.32
2018-10-09T15:22:21.884Z,23.68
2018-10-09T15:24:50.579Z,23.87
2018-10-09T15:27:19.227Z,24.10
2018-10-09T15:29:48.124Z,24.35
2018-10-09T15:32:16.893Z,24.51
2018-10-09T15:34:45.459Z,24.64
2018-10-09T15:37:14.018Z,24.60
2018-10-09T15:39:42.810Z,24.47
2018-10-09T15:42:11.448Z,24.39
2018-10-09T15:44:40.228Z,24.18
2018-10-09T15:47:08.932Z,24.06
2018-10-09T15:49:37.769Z,23.98
2018-10-09T15:52:06.408Z,23.66
2018-10-09T15:54:35.197Z,23.05
2018-10-09T15:57:04.669Z,22.72
2018-10-09T15:59:33.421Z,22.34
2018-10-09T16:02:02.173Z,21.71
2018-10-09T16:04:31.245Z,21.48
2018-10-09T16:07:01.329Z,21.13
2018-10-09T16:09:30.049Z,20.82
2018-10-09T16:12:02.365Z,20.49
2018-10-09T16:14:31.775Z,20.34
2018-10-09T16:17:00.467Z,20.12
2018-10-09T16:19:30.305Z,19.85
2018-10-09T16:21:59.684Z,19.64
2018-10-09T16:24:28.482Z,19.55
2018-10-09T16:26:57.259Z,19.36
2018-10-09T16:29:26.017Z,19.21
2018-10-09T16:31:54.784Z,19.05
2018-10-09T16:34:23.457Z,18.81
2018-10-09T16:36:52.205Z,18.70
2018-10-09T16:39:20.885Z,18.52
2018-10-09T16:41:49.654Z,18.36
2018-10-09T16:44:18.481Z,18.22
2018-10-09T16:46:47.993Z,18.06
2018-10-09T16:49:16.768Z,17.94
2018-10-09T16:51:45.532Z,17.79
2018-10-09T16:54:14.240Z,17.72
2018-10-09T16:56:43.084Z,17.57
2018-10-09T16:59:11.764Z,17.46
2018-10-09T17:01:40.317Z,17.30
2018-10-09T17:04:08.902Z,17.17
2018-10-09T17:06:38.058Z,17.03
2018-10-09T17:09:08.812Z,16.96
2018-10-09T17:11:37.874Z,16.77
2018-10-09T17:14:06.569Z,16.59
2018-10-09T17:16:35.244Z,16.58
2018-10-09T17:19:03.941Z,16.49
2018-10-09T17:21:32.805Z,16.31
2018-10-09T17:24:01.467Z,16.19
2018-10-09T17:26:30.146Z,16.23
2018-10-09T17:28:58.935Z,16.10
2018-10-09T17:31:27.631Z,16.04
2018-10-09T17:33:56.277Z,15.93
2018-10-09T17:36:24.949Z,15.91
2018-10-09T17:38:53.825Z,15.78
2018-10-09T17:41:22.554Z,15.74
2018-10-09T17:43:51.260Z,15.68
2018-10-09T17:46:19.961Z,15.60
2018-10-09T17:48:48.615Z,15.48
2018-10-09T17:51:17.430Z,15.37
2018-10-09T17:53:46.144Z,15.39
2018-10-09T17:56:14.773Z,15.32
2018-10-09T17:58:43.472Z,15.30
2018-10-09T18:01:12.066Z,15.25
2018-10-09T18:03:40.930Z,15.26
2018-10-09T18:06:09.666Z,15.15
2018-10-09T18:08:39.367Z,14.93
2018-10-09T18:11:08.184Z,14.97
2018-10-09T18:13:36.994Z,14.81
2018-10-09T18:16:05.756Z,14.97
2018-10-09T18:18:36.548Z,14.90
2018-10-09T18:21:05.241Z,14.93
2018-10-09T18:23:34.085Z,14.83
2018-10-09T18:26:02.858Z,14.77
2018-10-09T18:28:31.533Z,14.55
2018-10-09T18:31:00.213Z,14.63
2018-10-09T18:33:28.873Z,14.59
2018-10-09T18:35:57.648Z,14.50
2018-10-09T18:38:26.294Z,14.46
2018-10-09T18:40:55.281Z,14.54
2018-10-09T18:43:23.882Z,14.44
2018-10-09T18:45:53.113Z,14.40
2018-10-09T18:48:21.882Z,14.40
2018-10-09T18:50:50.616Z,14.42
2018-10-09T18:53:19.373Z,14.36
2018-10-09T18:55:48.057Z,14.40
2018-10-09T18:58:16.892Z,14.38
2018-10-09T19:00:45.809Z,14.32
2018-10-09T19:03:14.466Z,14.36
2018-10-09T19:05:43.024Z,14.30
2018-10-09T19:08:11.549Z,14.29
2018-10-09T19:10:40.425Z,14.20
2018-10-09T19:13:09.106Z,14.18
2018-10-09T19:15:37.744Z,14.06
2018-10-09T19:18:06.578Z,14.10
2018-10-09T19:20:35.221Z,14.06
2018-10-09T19:23:03.905Z,14.02
2018-10-09T19:25:32.669Z,14.06
2018-10-09T19:28:01.449Z,13.99
2018-10-09T19:30:30.184Z,13.95
2018-10-09T19:32:58.977Z,13.98
2018-10-09T19:35:27.758Z,13.88
2018-10-09T19:37:56.409Z,13.92
2018-10-09T19:40:25.169Z,13.88
2018-10-09T19:42:53.850Z,13.89
2018-10-09T19:45:22.600Z,13.82
2018-10-09T19:47:51.409Z,13.81
2018-10-09T19:50:20.073Z,13.78
2018-10-09T19:52:48.771Z,13.79
2018-10-09T19:55:17.433Z,13.69
2018-10-09T19:57:46.213Z,13.65
2018-10-09T20:00:14.934Z,13.60
2018-10-09T20:02:43.769Z,13.65
2018-10-09T20:05:12.581Z,13.61
2018-10-09T20:07:41.304Z,13.61
2018-10-09T20:10:09.832Z,13.64
2018-10-09T20:12:38.667Z,13.64
2018-10-09T20:15:07.255Z,13.58
2018-10-09T20:17:36.046Z,13.59
2018-10-09T20:20:04.713Z,13.55
2018-10-09T20:22:33.514Z,13.43
2018-10-09T20:25:02.192Z,13.50
2018-10-09T20:27:30.865Z,13.46
2018-10-09T20:29:59.641Z,13.46
2018-10-09T20:32:28.444Z,13.44
2018-10-09T20:34:57.107Z,13.38
2018-10-09T20:37:25.898Z,13.46
2018-10-09T20:39:54.648Z,13.49
2018-10-09T20:42:23.566Z,13.34
2018-10-09T20:44:52.207Z,13.40
2018-10-09T20:47:26.267Z,13.37
2018-10-09T20:49:55.025Z,13.35
2018-10-09T20:52:24.053Z,13.37
2018-10-09T20:54:53.177Z,13.41
2018-10-09T20:57:22.568Z,13.39
2018-10-09T20:59:51.414Z,13.32
2018-10-09T21:02:20.224Z,13.40
2018-10-09T21:04:49.075Z,13.35
2018-10-09T21:07:18.168Z,13.31
2018-10-09T21:09:47.133Z,13.28
2018-10-09T21:12:15.941Z,13.21
2018-10-09T21:14:45.264Z,13.16
2018-10-09T21:17:14.058Z,13.16
2018-10-09T21:19:42.966Z,13.08
2018-10-09T21:22:11.737Z,13.03
2018-10-09T21:24:40.405Z,12.99
2018-10-09T21:27:09.161Z,12.98
2018-10-09T21:29:38.117Z,12.86
2018-10-09T21:32:06.887Z,12.85
2018-10-09T21:34:35.710Z,12.80
2018-10-09T21:37:04.643Z,12.79
2018-10-09T21:39:34.354Z,12.69
2018-10-09T21:42:03.001Z,12.73
2018-10-09T21:44:31.920Z,12.60
2018-10-09T21:47:00.489Z,12.55
2018-10-09T21:49:29.392Z,12.54
2018-10-09T21:51:58.037Z,12.51
2018-10-09T21:54:26.901Z,12.41
2018-10-09T21:56:55.700Z,12.31
2018-10-09T21:59:24.488Z,12.23
2018-10-09T22:01:53.159Z,12.28
2018-10-09T22:04:21.952Z,12.30
2018-10-09T22:06:50.461Z,12.24
2018-10-09T22:09:19.140Z,12.23
2018-10-09T22:11:47.992Z,12.20
2018-10-09T22:14:16.785Z,12.12
2018-10-09T22:16:45.718Z,12.13
2018-10-09T22:19:14.467Z,12.10
2018-10-09T22:21:43.232Z,12.08
2018-10-09T22:24:12.027Z,12.05
2018-10-09T22:26:40.576Z,12.04
2018-10-09T22:29:09.357Z,12.06
2018-10-09T22:31:38.232Z,11.99
2018-10-09T22:34:07.242Z,11.96
2018-10-09T22:36:35.998Z,11.97
2018-10-09T22:39:06.609Z,11.97
2018-10-09T22:41:35.351Z,11.97
2018-10-09T22:44:04.126Z,11.93
2018-10-09T22:46:32.811Z,11.95
2018-10-09T22:49:01.590Z,11.92
2018-10-09T22:51:30.304Z,11.87
2018-10-09T22:53:59.065Z,11.91
2018-10-09T22:56:27.856Z,11.87
2018-10-09T22:58:56.737Z,11.88
2018-10-09T23:01:25.417Z,11.85
2018-10-09T23:03:54.085Z,11.88
2018-10-09T23:06:22.882Z,11.87
2018-10-09T23:08:51.448Z,11.84
2018-10-09T23:11:20.283Z,11.84
2018-10-09T23:13:49.116Z,11.85
2018-10-09T23:16:17.920Z,11.86
2018-10-09T23:18:46.718Z,11.85
2018-10-09T23:21:15.532Z,11.85
2018-10-09T23:23:44.304Z,11.88
2018-10-09T23:26:13.116Z,11.89
2018-10-09T23:28:41.901Z,11.88
2018-10-09T23:31:10.608Z,11.90
2018-10-09T23:33:39.299Z,11.92
2018-10-09T23:36:08.093Z,11.85
2018-10-09T23:38:37.302Z,11.90
2018-10-09T23:41:07.140Z,11.93
2018-10-09T23:43:35.928Z,11.98
2018-10-09T23:46:04.712Z,11.95
2018-10-09T23:48:33.343Z,11.87
2018-10-09T23:51:02.141Z,11.77
2018-10-09T23:53:31.492Z,11.60
2018-10-09T23:56:00.185Z,11.29
2018-10-09T23:58:29.924Z,11.11
